createdAt,value
2022-10-18T00:01:19.656Z,12.90
2022-10-18T00:04:00.540Z,12.90
2022-10-18T00:06:41.144Z,12.90
2022-10-18T00:09:50.537Z,12.90
2022-10-18T00:12:33.651Z,12.90
2022-10-18T00:15:47.606Z,12.80
2022-10-18T00:18:26.982Z,12.80
2022-10-18T00:21:07.216Z,12.70
2022-10-18T00:23:49.793Z,12.70
2022-10-18T00:26:34.560Z,12.70
2022-10-18T00:31:33.971Z,12.70
2022-10-18T00:34:18.409Z,12.70
2022-10-18T00:36:54.323Z,12.70
2022-10-18T00:39:41.265Z,12.70
2022-10-18T00:42:24.481Z,12.70
2022-10-18T00:45:25.109Z,12.80
2022-10-18T00:48:00.421Z,12.70
2022-10-18T00:50:28.184Z,12.70
2022-10-18T00:52:58.380Z,12.80
2022-10-18T00:55:28.485Z,12.80
2022-10-18T01:00:21.905Z,12.80
2022-10-18T01:02:48.611Z,12.80
2022-10-18T01:08:00.815Z,12.80
2022-10-18T01:11:00.793Z,12.80
2022-10-18T01:13:54.720Z,12.80
2022-10-18T01:16:30.249Z,12.80
2022-10-18T01:19:14.828Z,12.80
2022-10-18T01:21:55.405Z,12.80
2022-10-18T01:29:49.329Z,12.80
2022-10-18T01:32:20.496Z,12.80
2022-10-18T01:34:47.911Z,12.80
2022-10-18T01:37:16.426Z,12.80
2022-10-18T01:39:45.413Z,12.80
2022-10-18T01:42:13.169Z,12.80
2022-10-18T01:44:39.844Z,12.80
2022-10-18T01:47:07.273Z,12.80
2022-10-18T01:49:34.427Z,12.80
2022-10-18T01:52:01.260Z,12.70
2022-10-18T01:54:30.668Z,12.70
2022-10-18T01:57:01.278Z,12.70
2022-10-18T05:46:56.714Z,13.20
2022-10-18T05:49:23.723Z,13.20
2022-10-18T05:51:50.648Z,13.20
2022-10-18T05:54:17.672Z,13.20
2022-10-18T05:56:44.558Z,13.30
2022-10-18T05:59:12.345Z,13.30
2022-10-18T06:01:40.190Z,13.30
2022-10-18T06:04:07.174Z,13.30
2022-10-18T06:06:34.156Z,13.30
2022-10-18T06:09:03.334Z,13.40
2022-10-18T06:11:30.523Z,13.40
2022-10-18T06:14:01.794Z,13.40
2022-10-18T06:16:32.399Z,13.40
2022-10-18T06:19:00.178Z,13.40
2022-10-18T06:21:27.453Z,13.40
2022-10-18T06:23:56.671Z,13.40
2022-10-18T06:26:23.669Z,13.40
2022-10-18T06:28:50.764Z,13.50
2022-10-18T06:31:17.942Z,13.50
2022-10-18T06:38:38.028Z,13.50
2022-10-18T06:44:39.781Z,13.40
2022-10-18T06:47:07.906Z,13.40
2022-10-18T06:49:34.857Z,13.50
2022-10-18T06:52:01.768Z,13.50
2022-10-18T06:54:28.679Z,13.50
2022-10-18T06:56:58.877Z,13.50
2022-10-18T06:59:28.907Z,13.50
2022-10-18T07:01:58.323Z,13.60
2022-10-18T07:04:27.920Z,13.60
2022-10-18T07:06:54.869Z,13.60
2022-10-18T07:09:21.820Z,13.60
2022-10-18T07:11:48.843Z,13.60
2022-10-18T07:14:16.575Z,13.60
2022-10-18T07:16:43.647Z,13.70
2022-10-18T07:19:10.593Z,13.70
2022-10-18T07:21:37.541Z,13.70
2022-10-18T07:24:04.536Z,13.70
2022-10-18T07:29:01.970Z,13.80
2022-10-18T07:31:29.512Z,13.90
2022-10-18T07:33:56.542Z,13.90
2022-10-18T07:36:24.654Z,13.90
2022-10-18T07:38:52.316Z,13.90
2022-10-18T07:41:19.317Z,14.00
2022-10-18T07:43:51.097Z,14.10
2022-10-18T07:46:18.307Z,14.20
2022-10-18T07:48:45.308Z,14.30
2022-10-18T07:53:17.282Z,14.40
2022-10-18T07:55:44.859Z,14.60
2022-10-18T07:58:12.180Z,14.60
2022-10-18T08:00:39.492Z,14.60
2022-10-18T08:03:06.562Z,14.70
2022-10-18T08:05:33.667Z,14.80
2022-10-18T08:08:04.252Z,14.90
2022-10-18T08:10:35.124Z,15.00
2022-10-18T08:13:02.081Z,15.20
2022-10-18T08:15:29.069Z,15.20
2022-10-18T08:17:56.054Z,15.40
2022-10-18T08:20:31.341Z,15.40
2022-10-18T08:23:00.420Z,15.60
2022-10-18T08:25:28.585Z,15.70
2022-10-18T08:27:55.604Z,15.80
2022-10-18T08:30:23.590Z,15.90
2022-10-18T08:32:50.585Z,16.00
2022-10-18T08:35:17.580Z,16.10
2022-10-18T08:37:45.477Z,16.20
2022-10-18T08:40:15.592Z,16.30
2022-10-18T08:42:58.152Z,16.30
2022-10-18T08:45:40.890Z,16.40
2022-10-18T08:48:10.526Z,16.50
2022-10-18T08:50:38.743Z,16.50
2022-10-18T08:53:36.200Z,16.50
2022-10-18T08:56:15.308Z,16.50
2022-10-18T08:58:45.377Z,16.50
2022-10-18T09:01:15.777Z,16.50
2022-10-18T09:04:01.797Z,16.60
2022-10-18T09:06:37.601Z,16.60
2022-10-18T09:09:23.354Z,16.70
2022-10-18T09:12:15.447Z,16.70
2022-10-18T09:15:23.954Z,16.80
2022-10-18T09:18:05.755Z,16.90
2022-10-18T09:20:53.877Z,17.00
2022-10-18T09:23:44.597Z,17.10
2022-10-18T09:26:14.975Z,17.20
2022-10-18T09:28:58.496Z,17.40
2022-10-18T09:31:31.736Z,17.60
2022-10-18T09:34:03.996Z,17.90
2022-10-18T09:36:37.168Z,18.40
2022-10-18T09:39:06.067Z,18.70
2022-10-18T09:41:56.736Z,18.90
2022-10-18T09:44:25.792Z,19.20
2022-10-18T09:47:03.225Z,19.50
2022-10-18T09:49:36.875Z,19.80
2022-10-18T09:52:06.706Z,20.10
2022-10-18T09:54:36.205Z,20.30
2022-10-18T09:57:26.967Z,20.50
2022-10-18T09:59:54.006Z,20.60
2022-10-18T10:02:22.655Z,20.90
2022-10-18T10:04:54.331Z,20.90
2022-10-18T10:07:29.758Z,20.90
2022-10-18T10:10:07.579Z,21.00
2022-10-18T10:12:38.932Z,21.10
2022-10-18T10:15:23.325Z,21.10
2022-10-18T10:18:05.983Z,21.10
2022-10-18T10:20:44.194Z,21.10
2022-10-18T10:23:30.826Z,21.30
2022-10-18T10:25:59.889Z,21.40
2022-10-18T10:28:33.104Z,21.50
2022-10-18T10:31:25.133Z,21.50
2022-10-18T10:34:19.653Z,21.50
2022-10-18T10:36:51.129Z,21.60
2022-10-18T10:39:19.597Z,21.60
2022-10-18T10:41:50.212Z,21.60
2022-10-18T10:44:30.433Z,21.60
2022-10-18T10:46:57.878Z,21.60
2022-10-18T10:49:45.830Z,21.70
2022-10-18T10:52:36.644Z,21.80
2022-10-18T10:55:17.000Z,21.80
2022-10-18T10:57:51.944Z,21.80
2022-10-18T11:00:35.274Z,21.90
2022-10-18T11:03:27.400Z,21.90
2022-10-18T11:05:58.843Z,22.00
2022-10-18T11:08:31.790Z,22.00
2022-10-18T11:11:22.885Z,22.00
2022-10-18T11:14:07.296Z,22.10
2022-10-18T11:17:08.297Z,22.20
2022-10-18T11:20:00.224Z,22.30
2022-10-18T11:22:28.242Z,22.40
2022-10-18T11:24:55.622Z,22.40
2022-10-18T11:27:29.907Z,22.50
2022-10-18T11:30:17.988Z,22.50
2022-10-18T11:33:15.912Z,22.60
2022-10-18T11:36:09.320Z,22.60
2022-10-18T11:38:40.463Z,22.70
2022-10-18T11:41:23.544Z,22.70
2022-10-18T11:44:02.103Z,22.80
2022-10-18T11:46:41.515Z,22.90
2022-10-18T11:49:17.595Z,23.00
2022-10-18T11:52:08.323Z,23.00
2022-10-18T11:54:54.100Z,23.10
2022-10-18T11:57:42.949Z,23.10
2022-10-18T12:00:28.662Z,23.00
2022-10-18T12:03:21.394Z,23.00
2022-10-18T12:05:48.978Z,22.90
2022-10-18T12:08:25.995Z,22.90
2022-10-18T12:11:09.463Z,22.80
2022-10-18T12:13:51.724Z,22.80
2022-10-18T12:16:28.892Z,22.70
2022-10-18T12:19:11.875Z,22.70
2022-10-18T12:21:39.232Z,22.70
2022-10-18T12:24:11.768Z,22.80
2022-10-18T12:26:38.715Z,22.80
2022-10-18T12:29:24.806Z,22.70
2022-10-18T12:31:55.394Z,22.70
2022-10-18T12:34:22.324Z,22.60
2022-10-18T12:37:27.846Z,22.60
2022-10-18T12:40:23.754Z,22.70
2022-10-18T12:42:51.730Z,22.90
2022-10-18T12:45:25.031Z,23.10
2022-10-18T12:47:52.088Z,23.30
2022-10-18T12:50:35.553Z,23.40
2022-10-18T12:53:06.934Z,23.40
2022-10-18T12:55:39.036Z,23.30
2022-10-18T12:58:27.517Z,23.30
2022-10-18T13:01:01.271Z,23.40
2022-10-18T13:03:31.226Z,23.50
2022-10-18T13:06:01.578Z,23.40
2022-10-18T13:08:38.232Z,23.30
2022-10-18T13:11:08.258Z,23.30
2022-10-18T13:13:42.190Z,23.30
2022-10-18T13:16:29.392Z,23.40
2022-10-18T13:19:19.444Z,23.30
2022-10-18T13:22:13.025Z,23.30
2022-10-18T13:24:47.740Z,23.20
2022-10-18T13:27:42.364Z,23.10
2022-10-18T13:30:32.578Z,23.10
2022-10-18T13:33:14.980Z,23.40
2022-10-18T13:35:49.310Z,24.30
2022-10-18T13:38:34.735Z,24.50
2022-10-18T13:41:35.613Z,24.80
2022-10-18T13:44:02.835Z,25.00
2022-10-18T13:46:32.772Z,25.20
2022-10-18T13:49:26.990Z,25.50
2022-10-18T13:52:19.756Z,25.70
2022-10-18T13:54:58.656Z,25.60
2022-10-18T13:57:56.550Z,25.20
2022-10-18T14:00:44.906Z,24.80
2022-10-18T14:03:56.202Z,24.40
2022-10-18T14:06:29.198Z,24.10
2022-10-18T14:09:26.055Z,23.80
2022-10-18T14:12:16.619Z,23.60
2022-10-18T14:14:54.490Z,23.40
2022-10-18T14:18:00.097Z,23.30
2022-10-18T14:20:29.890Z,23.10
2022-10-18T14:23:15.782Z,23.00
2022-10-18T14:25:42.916Z,23.00
2022-10-18T14:28:48.085Z,23.10
2022-10-18T14:31:19.204Z,23.20
2022-10-18T16:31:31.221Z,18.70
2022-10-18T16:33:58.594Z,18.80
2022-10-18T16:36:29.257Z,18.80
2022-10-18T16:39:01.335Z,18.70
2022-10-18T16:41:28.199Z,18.70
2022-10-18T16:43:55.033Z,18.70
2022-10-18T16:46:23.562Z,18.60
2022-10-18T16:48:50.911Z,18.50
2022-10-18T16:51:17.920Z,18.40
2022-10-18T16:53:44.786Z,18.40
2022-10-18T16:56:18.895Z,18.30
2022-10-18T16:58:46.150Z,18.20
2022-10-18T17:01:17.546Z,18.20
2022-10-18T17:03:44.617Z,18.10
2022-10-18T17:06:21.496Z,18.00
2022-10-18T17:08:48.441Z,17.90
2022-10-18T17:11:15.971Z,17.80
2022-10-18T17:13:43.314Z,17.70
2022-10-18T17:18:57.071Z,17.60
2022-10-18T17:21:24.491Z,17.50
2022-10-18T17:24:06.167Z,17.50
2022-10-18T17:26:35.817Z,17.40
2022-10-18T17:29:06.350Z,17.40
2022-10-18T17:31:33.875Z,17.40
2022-10-18T17:34:02.366Z,17.40
2022-10-18T17:36:30.411Z,17.40
2022-10-18T17:38:57.385Z,17.40
2022-10-18T17:41:24.749Z,17.40
2022-10-18T17:43:51.643Z,17.40
2022-10-18T17:46:19.489Z,17.40
2022-10-18T17:48:46.558Z,17.30
2022-10-18T17:51:47.671Z,17.30
2022-10-18T18:03:17.732Z,17.20
2022-10-18T18:05:44.693Z,17.10
2022-10-18T18:08:11.417Z,17.10
2022-10-18T18:10:38.266Z,17.10
2022-10-18T18:13:05.028Z,17.00
